This is the latest recevied weather packets stored in our database for station/object DL9LA-13. If no packets are shown the sender has not sent any weather packets the latest 10 day(s).
| Time | Temp. | Humidity | Pressure | Rain* | Wind** | Luminosity | Snow |
|---|---|---|---|---|---|---|---|
| 1777538478 | 10° C | 32% | 984 hPa | - | - | - | - |
| 1777536667 | 9.44° C | 31% | 983 hPa | - | - | - | - |
| 1777536063 | 9.44° C | 33% | 983 hPa | - | - | - | - |
| 1777534856 | 8.89° C | 33% | 983 hPa | - | - | - | - |
| 1777534252 | 8.33° C | 33% | 983 hPa | - | - | - | - |
| 1777533649 | 8.33° C | 33% | 984 hPa | - | - | - | - |
| 1777532442 | 8.33° C | 34% | 984 hPa | - | - | - | - |
| 1777531839 | 8.33° C | 35% | 984 hPa | - | - | - | - |
| 1777530632 | 8.33° C | 35% | 984 hPa | - | - | - | - |
| 1777530027 | 8.33° C | 34% | 984 hPa | - | - | - | - |
| 1777529424 | 8.33° C | 34% | 984 hPa | - | - | - | - |
| 1777527612 | 16.67° C | 24% | 983 hPa | - | - | - | - |
| 1777523387 | 3.33° C | 46% | 984 hPa | - | - | - | - |
| 1777517350 | 4.44° C | 42% | 983 hPa | - | - | - | - |
| 1777515540 | 4.44° C | 42% | 983 hPa | - | - | - | - |
| 1777514332 | 4.44° C | 41% | 983 hPa | - | - | - | - |
| 1777513729 | 5° C | 41% | 983 hPa | - | - | - | - |
| 1777512521 | 5° C | 40% | 983 hPa | - | - | - | - |
| 1777508900 | 5.56° C | 39% | 982 hPa | - | - | - | - |
| 1777507692 | 6.11° C | 38% | 982 hPa | - | - | - | - |
| 1777505881 | 6.67° C | 38% | 982 hPa | - | - | - | - |
| 1777505278 | 6.67° C | 37% | 982 hPa | - | - | - | - |
| 1777502260 | 8.33° C | 36% | 981 hPa | - | - | - | - |
| 1777498638 | 9.44° C | 40% | 981 hPa | - | - | - | - |
| 1777482340 | 16.11° C | 26% | 977 hPa | - | - | - | - |
* Rain since midnight (hover to see other rain measurements)
** Current wind speed in m/s (hover to see current wind gust speed)